Time;durP1;ratioP1;P1;durP2;ratioP2;P2;SDS_P1;SDS_P2;PMS_P1;PMS_P2;Temp;Humidity;BMP_temperature;BMP_pressure;BME280_temperature;BME280_humidity;BME280_pressure;Samples;Min_cycle;Max_cycle;Signal;HPM_P1;HPM_P2
2023/11/02 00:00:59;;;;;;;;;;;;;;;;;;5095750;28;19908;-75
2023/11/02 00:03:25;;;;;;;;;;;;;;;;;;5094412;28;19953;-76
2023/11/02 00:05:52;;;;;;;;;;;;;;;;;;5095218;28;19908;-75
2023/11/02 00:08:19;;;;;;;;;;;;;;;;;;5095630;28;20006;-76
2023/11/02 00:10:45;;;;;;;;;;;;;;;;;;5095590;28;19908;-75
2023/11/02 00:13:10;;;;;;;;;;;;;;;;;;5095186;28;19923;-75
2023/11/02 00:15:36;;;;;;;;;;;;;;;;;;5094617;28;19908;-75
2023/11/02 00:18:03;;;;;;;;;;;;;;;;;;5095709;28;19909;-75
2023/11/02 00:20:29;;;;;;;;;;;;;;;;;;5094415;28;19908;-75
2023/11/02 00:22:55;;;;;;;;;;;;;;;;;;5095032;28;19942;-75
2023/11/02 00:25:22;;;;;;;;;;;;;;;;;;5095398;28;20360;-75
2023/11/02 00:27:48;;;;;;;;;;;;;;;;;;5093563;28;20010;-75
2023/11/02 00:30:14;;;;;;;;;;;;;;;;;;5095211;28;20009;-75
2023/11/02 00:32:40;;;;;;;;;;;;;;;;;;5095114;28;19916;-75
2023/11/02 00:35:07;;;;;;;;;;;;;;;;;;5094755;28;19999;-75
2023/11/02 00:37:33;;;;;;;;;;;;;;;;;;5095095;28;20338;-75
2023/11/02 00:39:59;;;;;;;;;;;;;;;;;;5095195;28;19907;-75
2023/11/02 00:42:25;;;;;;;;;;;;;;;;;;5093337;28;19915;-75
2023/11/02 00:44:51;;;;;;;;;;;;;;;;;;5093684;28;19914;-75
2023/11/02 00:47:17;;;;;;;;;;;;;;;;;;5094899;28;19912;-75
2023/11/02 00:49:43;;;;;;;;;;;;;;;;;;5094472;28;19912;-75
2023/11/02 00:52:09;;;;;;;;;;;;;;;;;;5094552;28;19977;-75
2023/11/02 00:54:36;;;;;;;;;;;;;;;;;;5095009;28;19960;-75
2023/11/02 00:57:04;;;;;;;;;;;;;;;;;;5094484;28;19904;-75
2023/11/02 00:59:31;;;;;;;;;;;;;;;;;;5093409;28;19995;-75
2023/11/02 01:01:57;;;;;;;;;;;;;;;;;;5094416;28;19969;-75
2023/11/02 01:04:23;;;;;;;;;;;;;;;;;;5094525;28;19951;-75
2023/11/02 01:06:49;;;;;;;;;;;;;;;;;;5094536;28;19911;-75
2023/11/02 01:09:15;;;;;;;;;;;;;;;;;;5094398;28;19909;-75
2023/11/02 01:11:41;;;;;;;;;;;;;;;;;;5094493;28;20006;-75
2023/11/02 01:14:07;;;;;;;;;;;;;;;;;;5093071;28;19916;-75
2023/11/02 01:16:33;;;;;;;;;;;;;;;;;;5094112;28;20031;-75
2023/11/02 01:18:59;;;;;;;;;;;;;;;;;;5094336;28;19908;-75
2023/11/02 01:21:26;;;;;;;;;;;;;;;;;;5094845;28;19934;-75
2023/11/02 01:23:52;;;;;;;;;;;;;;;;;;5094007;28;19914;-75
2023/11/02 01:26:18;;;;;;;;;;;;;;;;;;5094223;28;19990;-75
2023/11/02 01:28:44;;;;;;;;;;;;;;;;;;5094095;28;19915;-76
2023/11/02 01:31:10;;;;;;;;;;;;;;;;;;5093827;28;19908;-75
2023/11/02 01:33:36;;;;;;;;;;;;;;;;;;5094057;28;20011;-75
2023/11/02 01:36:02;;;;;;;;;;;;;;;;;;5094125;28;20019;-75
2023/11/02 01:38:30;;;;;;;;;;;;;;;;;;5093690;28;20382;-75
2023/11/02 01:40:58;;;;;;;;;;;;;;;;;;5094016;28;19943;-75
2023/11/02 01:43:24;;;;;;;;;;;;;;;;;;5094263;28;19915;-75
2023/11/02 01:45:50;;;;;;;;;;;;;;;;;;5092305;28;19908;-75
2023/11/02 01:48:16;;;;;;;;;;;;;;;;;;5094163;28;20288;-75
2023/11/02 01:50:42;;;;;;;;;;;;;;;;;;5093961;28;20286;-75
2023/11/02 01:53:09;;;;;;;;;;;;;;;;;;5093254;28;20344;-75
2023/11/02 01:55:35;;;;;;;;;;;;;;;;;;5092666;28;20319;-75
2023/11/02 01:58:01;;;;;;;;;;;;;;;;;;5092202;28;19927;-75
2023/11/02 02:00:26;;;;;;;;;;;;;;;;;;5093886;28;20344;-75
2023/11/02 02:02:52;;;;;;;;;;;;;;;;;;5093831;28;20288;-75
2023/11/02 02:05:18;;;;;;;;;;;;;;;;;;5093395;28;19981;-75
2023/11/02 02:07:44;;;;;;;;;;;;;;;;;;5093830;28;19955;-75
2023/11/02 02:10:12;;;;;;;;;;;;;;;;;;5092447;28;19908;-75
2023/11/02 02:12:38;;;;;;;;;;;;;;;;;;5093246;28;20016;-75
2023/11/02 02:15:04;;;;;;;;;;;;;;;;;;5093692;28;20375;-75
2023/11/02 02:17:30;;;;;;;;;;;;;;;;;;5093707;28;19908;-75
2023/11/02 02:19:56;;;;;;;;;;;;;;;;;;5093271;28;20378;-75
2023/11/02 02:22:22;;;;;;;;;;;;;;;;;;5092250;28;19916;-75
2023/11/02 02:24:48;;;;;;;;;;;;;;;;;;5093638;28;20364;-75
2023/11/02 02:27:14;;;;;;;;;;;;;;;;;;5093376;28;20271;-76
2023/11/02 02:29:40;;;;;;;;;;;;;;;;;;5093685;28;19908;-76
2023/11/02 02:32:07;;;;;;;;;;;;;;;;;;5093648;28;20265;-75
2023/11/02 02:34:33;;;;;;;;;;;;;;;;;;5093160;28;19974;-75
2023/11/02 02:36:59;;;;;;;;;;;;;;;;;;5093637;28;19908;-75
2023/11/02 02:39:25;;;;;;;;;;;;;;;;;;5094825;28;20356;-76
2023/11/02 02:41:51;;;;;;;;;;;;;;;;;;5097042;28;20253;-75
2023/11/02 02:44:17;;;;;;;;;;;;;;;;;;5097360;28;20264;-75
2023/11/02 02:46:43;;;;;;;;;;;;;;;;;;5097306;28;19912;-75
2023/11/02 02:49:09;;;;;;;;;;;;;;;;;;5096851;28;19915;-75
2023/11/02 02:51:38;;;;;;;;;;;;;;;;;;5097168;28;19915;-75
2023/11/02 02:54:04;;;;;;;;;;;;;;;;;;5096839;28;19920;-75
2023/11/02 02:56:30;;;;;;;;;;;;;;;;;;5096697;28;19958;-76
2023/11/02 02:58:56;;;;;;;;;;;;;;;;;;5097037;28;19950;-75
2023/11/02 03:01:22;;;;;;;;;;;;;;;;;;5096864;28;19908;-76
2023/11/02 03:03:48;;;;;;;;;;;;;;;;;;5097204;28;19908;-75
2023/11/02 03:06:14;;;;;;;;;;;;;;;;;;5096884;28;19908;-76
2023/11/02 03:08:40;;;;;;;;;;;;;;;;;;5096454;28;19912;-76
2023/11/02 03:11:06;;;;;;;;;;;;;;;;;;5096798;28;19908;-75
2023/11/02 03:13:32;;;;;;;;;;;;;;;;;;5095421;28;19916;-75
2023/11/02 03:15:58;;;;;;;;;;;;;;;;;;5096346;28;19908;-75
2023/11/02 03:18:26;;;;;;;;;;;;;;;;;;5095362;28;19931;-75
2023/11/02 03:20:52;;;;;;;;;;;;;;;;;;5096557;28;19908;-75
2023/11/02 03:23:18;;;;;;;;;;;;;;;;;;5096210;28;20360;-76
2023/11/02 03:25:47;;;;;;;;;;;;;;;;;;5096389;28;19977;-76
2023/11/02 03:28:13;;;;;;;;;;;;;;;;;;5096431;28;19912;-76
2023/11/02 03:30:39;;;;;;;;;;;;;;;;;;5096373;28;19915;-76
2023/11/02 03:33:05;;;;;;;;;;;;;;;;;;5096302;28;20368;-76
2023/11/02 03:35:31;;;;;;;;;;;;;;;;;;5096251;28;19908;-76
2023/11/02 03:37:57;;;;;;;;;;;;;;;;;;5095732;28;19915;-75
2023/11/02 03:40:24;;;;;;;;;;;;;;;;;;5096177;28;19912;-76
2023/11/02 03:42:50;;;;;;;;;;;;;;;;;;5096155;28;20280;-76
2023/11/02 03:45:16;;;;;;;;;;;;;;;;;;5095804;28;19908;-76
2023/11/02 03:47:42;;;;;;;;;;;;;;;;;;5096133;28;19931;-75
2023/11/02 03:50:08;;;;;;;;;;;;;;;;;;5096060;28;19908;-75
2023/11/02 03:52:34;;;;;;;;;;;;;;;;;;5095450;28;19920;-76
2023/11/02 03:55:00;;;;;;;;;;;;;;;;;;5096593;28;19927;-75
2023/11/02 03:57:26;;;;;;;;;;;;;;;;;;5096664;28;19908;-76
2023/11/02 03:59:52;;;;;;;;;;;;;;;;;;5095453;28;19909;-76
2023/11/02 04:02:18;;;;;;;;;;;;;;;;;;5095736;28;19908;-76
2023/11/02 04:04:44;;;;;;;;;;;;;;;;;;5093928;28;19937;-76
2023/11/02 04:07:10;;;;;;;;;;;;;;;;;;5095728;28;19908;-76
2023/11/02 04:09:36;;;;;;;;;;;;;;;;;;5095683;28;19909;-77
2023/11/02 04:12:02;;;;;;;;;;;;;;;;;;5095120;28;19917;-76
2023/11/02 04:14:28;;;;;;;;;;;;;;;;;;5095661;28;19915;-76
2023/11/02 04:16:54;;;;;;;;;;;;;;;;;;5095815;28;20003;-76
2023/11/02 04:19:20;;;;;;;;;;;;;;;;;;5095078;28;20292;-76
2023/11/02 04:21:46;;;;;;;;;;;;;;;;;;5095497;28;19948;-76
2023/11/02 04:24:12;;;;;;;;;;;;;;;;;;5095389;28;19908;-76
2023/11/02 04:26:38;;;;;;;;;;;;;;;;;;5094984;28;19908;-76
2023/11/02 04:29:03;;;;;;;;;;;;;;;;;;5095309;28;19948;-77
2023/11/02 04:31:29;;;;;;;;;;;;;;;;;;5095281;28;19908;-77
2023/11/02 04:33:55;;;;;;;;;;;;;;;;;;5094677;28;19916;-77
2023/11/02 04:36:21;;;;;;;;;;;;;;;;;;5093928;28;19915;-77
2023/11/02 04:38:52;;;;;;;;;;;;;;;;;;5095126;28;19908;-77
2023/11/02 04:41:18;;;;;;;;;;;;;;;;;;5094702;28;20001;-76
2023/11/02 04:43:44;;;;;;;;;;;;;;;;;;5094973;28;20371;-76
2023/11/02 04:46:10;;;;;;;;;;;;;;;;;;5093626;28;20292;-78
2023/11/02 04:48:35;;;;;;;;;;;;;;;;;;5094644;28;20348;-76
2023/11/02 04:51:01;;;;;;;;;;;;;;;;;;5094802;28;20027;-76
2023/11/02 04:53:27;;;;;;;;;;;;;;;;;;5093323;28;19920;-76
2023/11/02 04:55:53;;;;;;;;;;;;;;;;;;5094421;28;19912;-76
2023/11/02 04:58:19;;;;;;;;;;;;;;;;;;5093445;28;19943;-77
2023/11/02 05:00:45;;;;;;;;;;;;;;;;;;5094768;28;19961;-75
2023/11/02 05:03:11;;;;;;;;;;;;;;;;;;5094078;28;19912;-76
2023/11/02 05:05:37;;;;;;;;;;;;;;;;;;5094683;28;19947;-76
2023/11/02 05:08:03;;;;;;;;;;;;;;;;;;5094215;28;19912;-76
2023/11/02 05:10:30;;;;;;;;;;;;;;;;;;5094567;28;19960;-76
2023/11/02 05:12:56;;;;;;;;;;;;;;;;;;5093074;28;20372;-76
2023/11/02 05:15:22;;;;;;;;;;;;;;;;;;5094116;28;19908;-77
2023/11/02 05:17:48;;;;;;;;;;;;;;;;;;5094383;28;20049;-76
2023/11/02 05:20:14;;;;;;;;;;;;;;;;;;5094326;28;19945;-77
2023/11/02 05:22:40;;;;;;;;;;;;;;;;;;5094050;28;19915;-77
2023/11/02 05:25:07;;;;;;;;;;;;;;;;;;5094269;28;20060;-77
2023/11/02 05:27:33;;;;;;;;;;;;;;;;;;5094270;28;19919;-77
2023/11/02 05:29:59;;;;;;;;;;;;;;;;;;5093927;28;19908;-76
2023/11/02 05:32:25;;;;;;;;;;;;;;;;;;5094079;28;19916;-77
2023/11/02 05:34:51;;;;;;;;;;;;;;;;;;5094308;28;19915;-77
2023/11/02 05:37:17;;;;;;;;;;;;;;;;;;5092501;28;20347;-77
2023/11/02 05:39:43;;;;;;;;;;;;;;;;;;5094125;28;19966;-76
2023/11/02 05:42:09;;;;;;;;;;;;;;;;;;5092706;28;19915;-78
2023/11/02 05:44:35;;;;;;;;;;;;;;;;;;5093600;28;19934;-75
2023/11/02 05:47:01;;;;;;;;;;;;;;;;;;5093827;28;19908;-75
2023/11/02 05:49:27;;;;;;;;;;;;;;;;;;5093929;28;20014;-75
2023/11/02 05:51:53;;;;;;;;;;;;;;;;;;5093253;28;19916;-74
2023/11/02 05:54:19;;;;;;;;;;;;;;;;;;5093856;28;19917;-75
2023/11/02 05:56:45;;;;;;;;;;;;;;;;;;5093823;28;19915;-75
2023/11/02 05:59:11;;;;;;;;;;;;;;;;;;5092138;28;20304;-76
2023/11/02 06:01:37;;;;;;;;;;;;;;;;;;5093948;28;19915;-75
2023/11/02 06:04:03;;;;;;;;;;;;;;;;;;5093782;28;19959;-76
2023/11/02 06:06:29;;;;;;;;;;;;;;;;;;5092114;28;19943;-76
2023/11/02 06:08:55;;;;;;;;;;;;;;;;;;5093832;28;19915;-76
2023/11/02 06:11:21;;;;;;;;;;;;;;;;;;5093397;28;20356;-75
2023/11/02 06:13:48;;;;;;;;;;;;;;;;;;5093815;28;19916;-75
2023/11/02 06:16:15;;;;;;;;;;;;;;;;;;5097444;28;19912;-76
2023/11/02 06:18:42;;;;;;;;;;;;;;;;;;5097199;28;19909;-76
2023/11/02 06:21:09;;;;;;;;;;;;;;;;;;5109364;28;19911;-76
2023/11/02 06:23:35;;;;;;;;;;;;;;;;;;5116844;28;19943;-74
2023/11/02 06:26:01;;;;;;;;;;;;;;;;;;5103112;28;19912;-75
2023/11/02 06:28:27;;;;;;;;;;;;;;;;;;5095986;28;19912;-70
2023/11/02 06:30:53;;;;;;;;;;;;;;;;;;5094392;28;19912;-71
2023/11/02 06:33:19;;;;;;;;;;;;;;;;;;5094010;28;20346;-73
2023/11/02 06:35:45;;;;;;;;;;;;;;;;;;5089513;28;19920;-72
2023/11/02 06:38:11;;;;;;;;;;;;;;;;;;5092007;28;19912;-72
2023/11/02 06:40:37;;;;;;;;;;;;;;;;;;5095606;28;19920;-70
2023/11/02 06:43:03;;;;;;;;;;;;;;;;;;5092698;28;20436;-72
2023/11/02 06:45:29;;;;;;;;;;;;;;;;;;5086877;28;19935;-70
2023/11/02 06:47:56;;;;;;;;;;;;;;;;;;5093308;28;20341;-76
2023/11/02 06:50:22;;;;;;;;;;;;;;;;;;5093552;28;20800;-70
2023/11/02 06:52:48;;;;;;;;;;;;;;;;;;5094458;28;19927;-71
2023/11/02 06:55:14;;;;;;;;;;;;;;;;;;5092858;28;19920;-70
2023/11/02 06:57:40;;;;;;;;;;;;;;;;;;5094169;28;20288;-70
2023/11/02 07:00:09;;;;;;;;;;;;;;;;;;5094211;28;19919;-69
2023/11/02 07:02:36;;;;;;;;;;;;;;;;;;5090032;28;19912;-71
2023/11/02 07:05:02;;;;;;;;;;;;;;;;;;5097612;28;19911;-70
2023/11/02 07:07:28;;;;;;;;;;;;;;;;;;5102049;28;20558;-71
2023/11/02 07:09:54;;;;;;;;;;;;;;;;;;5103950;28;19919;-71
2023/11/02 07:12:20;;;;;;;;;;;;;;;;;;5088344;28;19922;-70
2023/11/02 07:14:49;;;;;;;;;;;;;;;;;;5072028;28;20509;-71
2023/11/02 07:17:16;;;;;;;;;;;;;;;;;;5087982;28;19919;-70
2023/11/02 07:19:42;;;;;;;;;;;;;;;;;;5093062;28;20021;-71
2023/11/02 07:22:07;;;;;;;;;;;;;;;;;;5092052;28;19935;-73
2023/11/02 07:24:33;;;;;;;;;;;;;;;;;;5099347;28;19928;-69
2023/11/02 07:26:59;;;;;;;;;;;;;;;;;;5092788;28;19961;-69
2023/11/02 07:29:25;;;;;;;;;;;;;;;;;;5091408;28;19919;-70
2023/11/02 07:31:51;;;;;;;;;;;;;;;;;;5091353;28;19952;-70
2023/11/02 07:34:18;;;;;;;;;;;;;;;;;;5090324;28;20334;-70
2023/11/02 07:36:44;;;;;;;;;;;;;;;;;;5092633;28;19916;-70
2023/11/02 07:39:10;;;;;;;;;;;;;;;;;;5086470;28;20011;-69
2023/11/02 07:41:36;;;;;;;;;;;;;;;;;;5091987;28;19912;-70
2023/11/02 07:44:02;;;;;;;;;;;;;;;;;;5092332;28;19919;-69
2023/11/02 07:46:28;;;;;;;;;;;;;;;;;;5085482;28;19999;-68
2023/11/02 07:48:54;;;;;;;;;;;;;;;;;;5093426;28;19912;-69
2023/11/02 07:51:20;;;;;;;;;;;;;;;;;;5081117;28;19946;-70
2023/11/02 07:53:46;;;;;;;;;;;;;;;;;;5072457;28;19920;-71
2023/11/02 07:56:12;;;;;;;;;;;;;;;;;;5079153;28;19908;-69
2023/11/02 07:58:59;;;;;;;;;;;;;;;;;;5110479;27;19916;-69
2023/11/02 08:01:25;;;;;;;;;;;;;;;;;;5113838;28;19911;-70
2023/11/02 08:03:51;;;;;;;;;;;;;;;;;;5108803;28;20406;-69
2023/11/02 08:06:17;;;;;;;;;;;;;;;;;;5106651;28;19965;-72
2023/11/02 08:09:32;;;;;;;;;;;;;;;;;;5108539;27;19920;-68
2023/11/02 08:13:46;;;;;;;;;;;;;;;;;;5052157;27;19924;-68
2023/11/02 08:16:12;;;;;;;;;;;;;;;;;;5065364;28;20248;-70
2023/11/02 08:20:02;;;;;;;;;;;;;;;;;;5081662;27;19935;-71
2023/11/02 08:24:44;;;;;;;;;;;;;;;;;;5154351;27;19931;-67
2023/11/02 08:28:11;;;;;;;;;;;;;;;;;;5088323;27;19916;-68
2023/11/02 08:30:37;;;;;;;;;;;;;;;;;;5086423;28;19923;-67
2023/11/02 08:33:03;;;;;;;;;;;;;;;;;;5086946;28;19962;-68
2023/11/02 08:35:44;;;;;;;;;;;;;;;;;;5086341;27;20266;-71
2023/11/02 08:38:11;;;;;;;;;;;;;;;;;;5085656;28;20365;-71
2023/11/02 08:40:37;;;;;;;;;;;;;;;;;;5082058;28;19965;-69
2023/11/02 08:45:03;;;;;;;;;;;;;;;;;;5086315;27;19921;-68
2023/11/02 08:50:16;;;;;;;;;;;;;;;;;;5108966;27;20062;-70
2023/11/02 08:54:32;;;;;;;;;;;;;;;;;;5088533;27;19916;-70
2023/11/02 08:56:58;;;;;;;;;;;;;;;;;;5077382;28;19920;-68
2023/11/02 09:01:28;;;;;;;;;;;;;;;;;;5106412;27;20497;-71
2023/11/02 09:03:54;;;;;;;;;;;;;;;;;;5114731;28;19922;-68
2023/11/02 09:06:20;;;;;;;;;;;;;;;;;;5108159;28;19912;-69
2023/11/02 09:15:09;;;;;;;;;;;;;;;;;;5084562;28;19917;-69
2023/11/02 09:18:43;;;;;;;;;;;;;;;;;;5080188;27;20369;-69
2023/11/02 09:21:09;;;;;;;;;;;;;;;;;;5082131;28;19919;-75
2023/11/02 09:23:37;;;;;;;;;;;;;;;;;;5066871;28;19936;-75
2023/11/02 09:32:06;;;;;;;;;;;;;;;;;;4997378;27;3420620;-73
2023/11/02 09:37:29;;;;;;;;;;;;;;;;;;5109008;27;19945;-74
2023/11/02 09:39:55;;;;;;;;;;;;;;;;;;5103090;28;20366;-73
2023/11/02 09:48:00;;;;;;;;;;;;;;;;;;5072470;28;19942;-72
2023/11/02 09:52:22;;;;;;;;;;;;;;;;;;5107511;27;19927;-75
2023/11/02 09:57:28;;;;;;;;;;;;;;;;;;5088848;27;19932;-73
2023/11/02 09:59:54;;;;;;;;;;;;;;;;;;5087954;28;19917;-73
2023/11/02 10:02:20;;;;;;;;;;;;;;;;;;5083749;28;20277;-74
2023/11/02 10:06:16;;;;;;;;;;;;;;;;;;5150269;27;19922;-74
2023/11/02 10:08:42;;;;;;;;;;;;;;;;;;5126571;27;19950;-70
2023/11/02 10:11:08;;;;;;;;;;;;;;;;;;5132954;27;19954;-70
2023/11/02 10:13:34;;;;;;;;;;;;;;;;;;5143991;27;19912;-70
2023/11/02 10:16:00;;;;;;;;;;;;;;;;;;5129220;27;20542;-70
2023/11/02 10:18:26;;;;;;;;;;;;;;;;;;5125378;27;20268;-69
2023/11/02 10:21:12;;;;;;;;;;;;;;;;;;5117226;27;19989;-70
2023/11/02 10:23:38;;;;;;;;;;;;;;;;;;5105084;28;20424;-70
2023/11/02 10:26:04;;;;;;;;;;;;;;;;;;5098732;28;20051;-70
2023/11/02 10:28:30;;;;;;;;;;;;;;;;;;5102883;28;20012;-69
2023/11/02 10:30:56;;;;;;;;;;;;;;;;;;5101470;28;20016;-69
2023/11/02 10:33:51;;;;;;;;;;;;;;;;;;5125417;27;19918;-70
2023/11/02 10:36:17;;;;;;;;;;;;;;;;;;5091657;28;20031;-72
2023/11/02 10:38:42;;;;;;;;;;;;;;;;;;5104915;28;19991;-70
2023/11/02 10:41:09;;;;;;;;;;;;;;;;;;5128650;28;19915;-70
2023/11/02 10:43:37;;;;;;;;;;;;;;;;;;5126972;28;20011;-70
2023/11/02 10:46:03;;;;;;;;;;;;;;;;;;5106136;28;19969;-70
2023/11/02 10:48:29;;;;;;;;;;;;;;;;;;5105879;28;19916;-70
2023/11/02 10:51:07;;;;;;;;;;;;;;;;;;5087498;27;19927;-70
2023/11/02 10:53:34;;;;;;;;;;;;;;;;;;5086070;28;19947;-71
2023/11/02 10:56:00;;;;;;;;;;;;;;;;;;5087905;28;19919;-69
2023/11/02 10:58:26;;;;;;;;;;;;;;;;;;5087894;28;19961;-69
2023/11/02 11:00:52;;;;;;;;;;;;;;;;;;5076623;28;19909;-69
2023/11/02 11:03:18;;;;;;;;;;;;;;;;;;5077745;28;19982;-70
2023/11/02 11:05:44;;;;;;;;;;;;;;;;;;5086923;28;19916;-69
2023/11/02 11:08:12;;;;;;;;;;;;;;;;;;5085192;28;19954;-70
2023/11/02 11:10:38;;;;;;;;;;;;;;;;;;5079810;28;19931;-69
2023/11/02 11:13:33;;;;;;;;;;;;;;;;;;5085212;27;19919;-69
2023/11/02 11:15:59;;;;;;;;;;;;;;;;;;5085168;28;19916;-69
2023/11/02 11:18:25;;;;;;;;;;;;;;;;;;5086852;28;19948;-70
2023/11/02 11:20:51;;;;;;;;;;;;;;;;;;5088578;28;19958;-76
2023/11/02 11:23:17;;;;;;;;;;;;;;;;;;5089179;28;19908;-73
2023/11/02 11:25:43;;;;;;;;;;;;;;;;;;5089386;28;20434;-71
2023/11/02 11:28:09;;;;;;;;;;;;;;;;;;5084815;28;19913;-72
2023/11/02 11:30:36;;;;;;;;;;;;;;;;;;5086960;28;19920;-69
2023/11/02 11:33:04;;;;;;;;;;;;;;;;;;5074499;28;19917;-69
2023/11/02 11:35:32;;;;;;;;;;;;;;;;;;5068172;28;19915;-69
2023/11/02 11:37:58;;;;;;;;;;;;;;;;;;5068316;28;19916;-71
2023/11/02 11:40:24;;;;;;;;;;;;;;;;;;5067311;28;19916;-71
2023/11/02 11:42:50;;;;;;;;;;;;;;;;;;5066166;28;19909;-72
2023/11/02 11:45:16;;;;;;;;;;;;;;;;;;5065856;28;20505;-72
2023/11/02 11:47:42;;;;;;;;;;;;;;;;;;5064101;28;19915;-72
2023/11/02 11:50:08;;;;;;;;;;;;;;;;;;5064067;28;19909;-69
2023/11/02 11:52:34;;;;;;;;;;;;;;;;;;5058702;28;19916;-72
2023/11/02 11:54:59;;;;;;;;;;;;;;;;;;5064657;28;19913;-72
2023/11/02 11:57:25;;;;;;;;;;;;;;;;;;5062906;28;20325;-72
2023/11/02 11:59:53;;;;;;;;;;;;;;;;;;5057469;28;20262;-72
2023/11/02 12:02:18;;;;;;;;;;;;;;;;;;5067182;28;19920;-72
2023/11/02 12:04:44;;;;;;;;;;;;;;;;;;5066501;28;20323;-71
2023/11/02 12:07:10;;;;;;;;;;;;;;;;;;5069399;28;20023;-72
2023/11/02 12:09:37;;;;;;;;;;;;;;;;;;5064475;28;20288;-72
2023/11/02 12:12:03;;;;;;;;;;;;;;;;;;5075757;28;20490;-72
2023/11/02 12:14:29;;;;;;;;;;;;;;;;;;5088927;28;19912;-71
2023/11/02 12:19:03;;;;;;;;;;;;;;;;;;5109721;27;19916;-70
2023/11/02 12:21:29;;;;;;;;;;;;;;;;;;5108984;28;19912;-70
2023/11/02 12:23:56;;;;;;;;;;;;;;;;;;5108473;28;19912;-70
2023/11/02 12:26:24;;;;;;;;;;;;;;;;;;5108864;28;20476;-71
2023/11/02 12:28:50;;;;;;;;;;;;;;;;;;5109313;28;20280;-71
2023/11/02 12:31:16;;;;;;;;;;;;;;;;;;5109625;28;20007;-70
2023/11/02 12:33:43;;;;;;;;;;;;;;;;;;5110541;28;20010;-71
2023/11/02 12:36:09;;;;;;;;;;;;;;;;;;5109556;28;19951;-71
2023/11/02 12:38:35;;;;;;;;;;;;;;;;;;5110515;28;19967;-71
2023/11/02 12:41:02;;;;;;;;;;;;;;;;;;5106594;28;19915;-71
2023/11/02 12:43:29;;;;;;;;;;;;;;;;;;5101658;28;19950;-71
2023/11/02 12:45:55;;;;;;;;;;;;;;;;;;5109798;28;19923;-70
2023/11/02 12:48:21;;;;;;;;;;;;;;;;;;5110131;28;20296;-70
2023/11/02 12:50:50;;;;;;;;;;;;;;;;;;5110427;28;19943;-71
2023/11/02 12:53:16;;;;;;;;;;;;;;;;;;5108765;28;19908;-71
2023/11/02 12:55:42;;;;;;;;;;;;;;;;;;5095683;28;20006;-70
2023/11/02 12:58:08;;;;;;;;;;;;;;;;;;5106357;28;19916;-69
2023/11/02 13:00:40;;;;;;;;;;;;;;;;;;5107431;28;19918;-70
2023/11/02 13:03:08;;;;;;;;;;;;;;;;;;5105758;28;20005;-69
2023/11/02 13:05:35;;;;;;;;;;;;;;;;;;5108454;28;20605;-70
2023/11/02 13:08:01;;;;;;;;;;;;;;;;;;5108674;28;19940;-70
2023/11/02 13:10:27;;;;;;;;;;;;;;;;;;5108653;28;19961;-70
2023/11/02 13:12:55;;;;;;;;;;;;;;;;;;5108373;28;19908;-70
2023/11/02 13:15:21;;;;;;;;;;;;;;;;;;5106489;28;19915;-70
2023/11/02 13:17:47;;;;;;;;;;;;;;;;;;5106599;28;19920;-69
2023/11/02 13:20:14;;;;;;;;;;;;;;;;;;5107955;28;19913;-70
2023/11/02 13:22:41;;;;;;;;;;;;;;;;;;5108801;28;19912;-70
2023/11/02 13:25:07;;;;;;;;;;;;;;;;;;5107099;28;20011;-69
2023/11/02 13:27:34;;;;;;;;;;;;;;;;;;5107092;28;19922;-69
2023/11/02 13:30:00;;;;;;;;;;;;;;;;;;5096078;28;20284;-68
2023/11/02 13:32:26;;;;;;;;;;;;;;;;;;5095008;28;19912;-68
2023/11/02 13:34:52;;;;;;;;;;;;;;;;;;5092510;28;20280;-67
2023/11/02 13:37:18;;;;;;;;;;;;;;;;;;5091986;28;19920;-69
2023/11/02 13:39:45;;;;;;;;;;;;;;;;;;5095479;28;20010;-71
2023/11/02 13:42:12;;;;;;;;;;;;;;;;;;5094433;28;19912;-69
2023/11/02 13:44:42;;;;;;;;;;;;;;;;;;5095848;28;20365;-69
2023/11/02 13:47:08;;;;;;;;;;;;;;;;;;5096238;28;19908;-69
2023/11/02 13:49:34;;;;;;;;;;;;;;;;;;5093921;28;20341;-69
2023/11/02 13:52:00;;;;;;;;;;;;;;;;;;5095632;28;19908;-68
2023/11/02 13:54:26;;;;;;;;;;;;;;;;;;5105655;28;20389;-69
2023/11/02 13:56:51;;;;;;;;;;;;;;;;;;5094345;28;19908;-70
2023/11/02 13:59:17;;;;;;;;;;;;;;;;;;5095693;28;19959;-75
2023/11/02 14:01:43;;;;;;;;;;;;;;;;;;5093113;28;19908;-75
2023/11/02 14:04:09;;;;;;;;;;;;;;;;;;5095300;28;19950;-75
2023/11/02 14:06:35;;;;;;;;;;;;;;;;;;5096139;28;19908;-75
2023/11/02 14:09:02;;;;;;;;;;;;;;;;;;5096941;28;19908;-75
2023/11/02 14:11:28;;;;;;;;;;;;;;;;;;5095773;28;20012;-75
2023/11/02 14:13:54;;;;;;;;;;;;;;;;;;5096459;28;19908;-75
2023/11/02 14:16:20;;;;;;;;;;;;;;;;;;5094532;28;19953;-75
2023/11/02 14:18:46;;;;;;;;;;;;;;;;;;5094544;28;20269;-75
2023/11/02 14:21:12;;;;;;;;;;;;;;;;;;5095213;28;19935;-74
2023/11/02 14:23:38;;;;;;;;;;;;;;;;;;5076877;28;19909;-75
2023/11/02 14:26:05;;;;;;;;;;;;;;;;;;5095493;28;19908;-76
2023/11/02 14:28:32;;;;;;;;;;;;;;;;;;5095771;28;19915;-76
2023/11/02 14:30:58;;;;;;;;;;;;;;;;;;5077085;28;19908;-75
2023/11/02 14:33:24;;;;;;;;;;;;;;;;;;5095651;28;20360;-75
2023/11/02 14:35:51;;;;;;;;;;;;;;;;;;5095518;28;19958;-75
2023/11/02 14:38:19;;;;;;;;;;;;;;;;;;5095088;28;19916;-77
2023/11/02 14:40:45;;;;;;;;;;;;;;;;;;5094852;28;19999;-75
2023/11/02 14:43:11;;;;;;;;;;;;;;;;;;5077565;28;19943;-76
2023/11/02 14:45:42;;;;;;;;;;;;;;;;;;5094802;28;19912;-76
2023/11/02 14:48:09;;;;;;;;;;;;;;;;;;5095561;28;19991;-74
2023/11/02 14:50:36;;;;;;;;;;;;;;;;;;5095186;28;20428;-75
2023/11/02 14:53:02;;;;;;;;;;;;;;;;;;5076653;28;19928;-75
2023/11/02 14:55:28;;;;;;;;;;;;;;;;;;5095198;28;19915;-75
2023/11/02 14:57:54;;;;;;;;;;;;;;;;;;5076848;28;19917;-75
2023/11/02 15:00:22;;;;;;;;;;;;;;;;;;5094712;28;19917;-75
2023/11/02 15:02:48;;;;;;;;;;;;;;;;;;5094876;28;19908;-75
2023/11/02 15:05:14;;;;;;;;;;;;;;;;;;5095549;28;19914;-76
2023/11/02 15:07:42;;;;;;;;;;;;;;;;;;5094518;28;20007;-75
2023/11/02 15:10:07;;;;;;;;;;;;;;;;;;5094790;28;19942;-75
2023/11/02 15:12:33;;;;;;;;;;;;;;;;;;5094780;28;19908;-75
2023/11/02 15:15:03;;;;;;;;;;;;;;;;;;5094425;28;19908;-75
2023/11/02 15:17:29;;;;;;;610.15;557.97;;;;;;;;;;5080236;28;19981;-75
2023/11/02 15:19:55;;;;;;;;;;;;;;;;;;5094283;28;20056;-74
2023/11/02 15:22:21;;;;;;;;;;;;;;;;;;5094647;28;20331;-75
2023/11/02 15:24:47;;;;;;;;;;;;;;;;;;5093331;28;19942;-75
2023/11/02 15:27:17;;;;;;;;;;;;;;;;;;5094486;28;20363;-75
2023/11/02 15:29:43;;;;;;;;;;;;;;;;;;5094489;28;20011;-75
2023/11/02 15:35:55;;;;;;;;;;;;;;;;;;5091067;27;19917;-75
2023/11/02 15:41:55;;;;;;;;;;;;;;;;;;5152760;27;20018;-74
2023/11/02 15:49:35;;;;;;;;;;;;;;;;;;5070913;28;19917;-75
2023/11/02 15:53:40;;;;;;;;;;;;;;;;;;5092163;27;19917;-76
2023/11/02 15:59:48;;;;;;;;;;;;;;;;;;5092081;27;19922;-76
2023/11/02 16:02:13;;;;;;;;;;;;;;;;;;5091513;28;20439;-77
2023/11/02 16:04:39;;;;;;;;;;;;;;;;;;5091238;28;19908;-75
2023/11/02 16:07:05;;;;;;;;;;;;;;;;;;5091496;28;19931;-76
2023/11/02 16:09:31;;;;;;;;;;;;;;;;;;5090785;28;19909;-77
2023/11/02 16:11:58;;;;;;;;;;;;;;;;;;5091150;28;19912;-75
2023/11/02 16:14:24;;;;;;;;;;;;;;;;;;5091140;28;20003;-76
2023/11/02 16:16:51;;;;;;;;;;;;;;;;;;5090786;28;19944;-75
2023/11/02 16:19:17;;;;;;;;;;;;;;;;;;5091015;28;20376;-76
2023/11/02 16:21:43;;;;;;;;;;;;;;;;;;5091155;28;19908;-75
2023/11/02 16:24:12;;;;;;;;;;;;;;;;;;5089199;28;19908;-76
2023/11/02 16:26:39;;;;;;;;;;;;;;;;;;5090922;28;19909;-75
2023/11/02 16:29:05;;;;;;;;;;;;;;;;;;5090819;28;19908;-77
2023/11/02 16:32:45;;;;;;;;;;;;;;;;;;5111918;27;19916;-76
2023/11/02 16:35:11;;;;;;;;;;;;;;;;;;5111754;28;20093;-76
2023/11/02 16:37:37;;;;;;;;;;;;;;;;;;5111016;28;20364;-77
2023/11/02 16:40:06;;;;;;;;;;;;;;;;;;5109891;28;20395;-76
2023/11/02 16:42:32;;;;;;;;;;;;;;;;;;5111499;28;19919;-75
2023/11/02 16:44:58;;;;;;;;;;;;;;;;;;5111178;28;20342;-75
2023/11/02 16:47:24;;;;;;;;;;;;;;;;;;5111563;28;20288;-75
2023/11/02 16:49:50;;;;;;;;;;;;;;;;;;5110830;28;20364;-75
2023/11/02 16:52:16;;;;;;;;;;;;;;;;;;5110962;28;19912;-75
2023/11/02 16:54:42;;;;;;;;;;;;;;;;;;5111121;28;20483;-75
2023/11/02 16:57:08;;;;;;;;;;;;;;;;;;5111012;28;20452;-75
2023/11/02 16:59:34;;;;;;;;;;;;;;;;;;5110410;28;20403;-76
2023/11/02 17:02:00;;;;;;;;;;;;;;;;;;5111226;28;19933;-75
2023/11/02 17:04:27;;;;;;;131.90;121.20;;;;;;;;;;5110217;28;20860;-75
2023/11/02 17:06:52;;;;;;;;;;;;;;;;;;5110825;28;20081;-75
2023/11/02 17:09:18;;;;;;;;;;;;;;;;;;5111114;28;19908;-76
2023/11/02 17:11:44;;;;;;;;;;;;;;;;;;5110998;28;19916;-74
2023/11/02 17:14:10;;;;;;;;;;;;;;;;;;5108377;28;20401;-75
2023/11/02 17:17:34;;;;;;;;;;;;;;;;;;5091977;27;20380;-75
2023/11/02 17:21:01;;;;;;;;;;;;;;;;;;5091220;27;19923;-74
2023/11/02 17:23:27;;;;;;;;;;;;;;;;;;5091326;28;19919;-75
2023/11/02 17:25:53;;;;;;;;;;;;;;;;;;5091207;28;20003;-75
2023/11/02 17:28:19;;;;;;;;;;;;;;;;;;5090930;28;19908;-75
2023/11/02 17:30:46;;;;;;;;;;;;;;;;;;5091362;28;19908;-75
2023/11/02 17:33:12;;;;;;;;;;;;;;;;;;5091410;28;20007;-75
2023/11/02 17:35:38;;;;;;;;;;;;;;;;;;5090748;28;20349;-75
2023/11/02 17:38:04;;;;;;;;;;;;;;;;;;5091078;28;19908;-75
2023/11/02 17:40:30;;;;;;;;;;;;;;;;;;5090457;28;19916;-75
2023/11/02 17:43:00;;;;;;;;;;;;;;;;;;5090937;28;19909;-75
2023/11/02 17:45:26;;;;;;;;;;;;;;;;;;5090968;28;19915;-75